Terminal Aerodrome Forecast
Issued by NWS Sterling, VA

Current Version | Previous Version | Graphics & Text | Print | Product List | Glossary On
Versions: 1 2 3 4 5 6 7 8 9 10 11 12 13 14 15 16 17 18 19 20 21 22 23 24 25 26 27 28 29 30 31
000
FTUS41 KLWX 181700
TAFIAD
TAF
KIAD 181735Z 1818/1924 28014G24KT P6SM SCT045 BKN070
     FM182100 30011G21KT P6SM FEW040 SCT060
     FM190100 29010G18KT P6SM BKN050
     FM190600 30008KT P6SM SCT200
     FM191400 31013G25KT P6SM SCT250=

USA.gov is the U.S. government's official web portal to all federal, state and local government web resources and services.